createdAt,value
2017-08-31T00:01:23.468Z,17.11
2017-08-31T00:03:51.705Z,17.17
2017-08-31T00:06:19.242Z,17.05
2017-08-31T00:08:46.793Z,16.99
2017-08-31T00:11:14.359Z,17.13
2017-08-31T00:13:41.937Z,17.02
2017-08-31T00:16:09.516Z,17.08
2017-08-31T00:18:37.029Z,17.00
2017-08-31T00:21:04.542Z,17.09
2017-08-31T00:23:32.082Z,16.98
2017-08-31T00:25:59.619Z,17.04
2017-08-31T00:28:27.170Z,17.05
2017-08-31T00:30:54.776Z,16.98
2017-08-31T00:33:22.390Z,16.96
2017-08-31T00:35:50.202Z,16.99
2017-08-31T00:38:17.803Z,16.98
2017-08-31T00:40:45.343Z,17.09
2017-08-31T00:43:12.911Z,17.17
2017-08-31T00:45:40.511Z,17.12
2017-08-31T00:48:08.041Z,17.03
2017-08-31T00:50:35.686Z,17.01
2017-08-31T00:53:03.268Z,17.07
2017-08-31T00:55:31.015Z,16.99
2017-08-31T00:57:58.549Z,16.97
2017-08-31T01:00:26.215Z,17.02
2017-08-31T01:02:53.952Z,16.89
2017-08-31T01:05:21.570Z,16.78
2017-08-31T01:07:49.143Z,16.60
2017-08-31T01:10:16.929Z,16.79
2017-08-31T01:12:44.672Z,16.78
2017-08-31T01:15:12.461Z,16.68
2017-08-31T01:17:40.254Z,16.73
2017-08-31T01:20:07.815Z,16.65
2017-08-31T01:22:35.452Z,16.74
2017-08-31T01:25:03.009Z,16.80
2017-08-31T01:27:30.791Z,16.74
2017-08-31T01:29:58.388Z,16.72
2017-08-31T01:32:26.004Z,16.68
2017-08-31T01:34:53.601Z,16.75
2017-08-31T01:37:21.415Z,16.80
2017-08-31T01:39:49.069Z,16.84
2017-08-31T01:42:16.941Z,16.72
2017-08-31T01:44:44.565Z,16.84
2017-08-31T01:47:12.163Z,16.84
2017-08-31T01:49:39.705Z,16.83
2017-08-31T01:52:07.500Z,16.82
2017-08-31T01:54:35.096Z,16.85
2017-08-31T01:57:02.650Z,16.91
2017-08-31T01:59:30.200Z,16.87
2017-08-31T02:01:58.387Z,16.86
2017-08-31T02:04:26.135Z,16.74
2017-08-31T02:06:53.673Z,16.83
2017-08-31T02:09:21.216Z,16.80
2017-08-31T02:11:48.763Z,16.65
2017-08-31T02:14:16.310Z,16.72
2017-08-31T02:16:43.884Z,16.71
2017-08-31T02:19:11.410Z,16.76
2017-08-31T02:21:39.000Z,16.74
2017-08-31T02:24:06.579Z,16.71
2017-08-31T02:26:34.108Z,16.73
2017-08-31T02:29:01.646Z,16.60
2017-08-31T02:31:29.337Z,16.64
2017-08-31T02:33:57.085Z,16.66
2017-08-31T02:36:24.681Z,16.58
2017-08-31T02:38:52.268Z,16.41
2017-08-31T02:41:20.033Z,16.38
2017-08-31T02:43:47.776Z,16.43
2017-08-31T02:46:15.370Z,16.37
2017-08-31T02:48:42.894Z,16.34
2017-08-31T02:51:10.422Z,16.32
2017-08-31T02:53:37.996Z,16.37
2017-08-31T02:56:05.512Z,16.33
2017-08-31T02:58:33.262Z,16.24
2017-08-31T03:01:00.867Z,16.20
2017-08-31T03:03:29.085Z,16.22
2017-08-31T03:05:56.817Z,16.20
2017-08-31T03:08:24.455Z,16.19
2017-08-31T03:10:52.002Z,16.32
2017-08-31T03:13:19.614Z,16.45
2017-08-31T03:15:47.191Z,16.56
2017-08-31T03:18:14.765Z,16.49
2017-08-31T03:20:42.508Z,16.51
2017-08-31T03:23:10.059Z,16.62
2017-08-31T03:25:38.404Z,16.68
2017-08-31T03:28:06.129Z,16.66
2017-08-31T03:30:33.734Z,16.67
2017-08-31T03:33:01.265Z,16.64
2017-08-31T03:35:28.821Z,16.47
2017-08-31T03:37:56.357Z,16.35
2017-08-31T03:40:23.939Z,16.33
2017-08-31T03:42:51.688Z,16.34
2017-08-31T03:45:19.291Z,16.27
2017-08-31T03:47:47.048Z,16.21
2017-08-31T03:50:14.572Z,16.09
2017-08-31T03:52:42.126Z,16.04
2017-08-31T03:55:09.668Z,16.09
2017-08-31T03:57:37.457Z,16.22
2017-08-31T04:00:07.081Z,16.29
2017-08-31T04:02:34.878Z,16.52
2017-08-31T04:05:02.447Z,16.39
2017-08-31T04:07:30.001Z,16.52
2017-08-31T04:09:57.557Z,16.53
2017-08-31T04:12:25.091Z,16.52
2017-08-31T04:14:52.687Z,16.49
2017-08-31T04:17:20.444Z,16.67
2017-08-31T04:19:48.348Z,16.65
2017-08-31T04:22:15.931Z,16.75
2017-08-31T04:24:43.496Z,16.69
2017-08-31T04:27:11.239Z,16.76
2017-08-31T04:29:39.058Z,16.90
2017-08-31T04:32:06.700Z,17.06
2017-08-31T04:34:35.287Z,17.07
2017-08-31T04:37:02.922Z,17.32
2017-08-31T04:39:30.598Z,17.16
2017-08-31T04:41:58.354Z,17.22
2017-08-31T04:44:26.019Z,17.55
2017-08-31T04:46:53.600Z,18.30
2017-08-31T04:49:21.179Z,18.78
2017-08-31T04:51:48.750Z,18.97
2017-08-31T04:54:16.331Z,19.29
2017-08-31T04:56:44.081Z,19.42
2017-08-31T04:59:11.607Z,19.71
2017-08-31T05:01:39.258Z,20.26
2017-08-31T05:04:07.016Z,20.81
2017-08-31T05:06:34.608Z,21.30
2017-08-31T05:09:02.223Z,21.57
2017-08-31T05:11:29.788Z,21.25
2017-08-31T05:13:57.322Z,21.83
2017-08-31T05:16:24.945Z,22.06
2017-08-31T05:18:52.504Z,22.10
2017-08-31T05:21:20.277Z,22.06
2017-08-31T05:23:48.070Z,22.04
2017-08-31T05:26:15.597Z,22.64
2017-08-31T05:28:43.409Z,22.24
2017-08-31T05:31:10.977Z,22.80
2017-08-31T05:33:38.560Z,23.08
2017-08-31T05:36:06.087Z,23.05
2017-08-31T05:38:33.708Z,23.17
2017-08-31T05:41:01.251Z,23.38
2017-08-31T05:43:28.830Z,23.68
2017-08-31T05:45:56.436Z,23.75
2017-08-31T05:48:24.009Z,24.46
2017-08-31T05:50:51.547Z,24.43
2017-08-31T05:53:19.176Z,24.82
2017-08-31T05:55:46.831Z,24.39
2017-08-31T05:58:14.368Z,24.78
2017-08-31T06:00:42.029Z,25.18
2017-08-31T06:03:09.597Z,25.50
2017-08-31T06:05:37.454Z,25.38
2017-08-31T06:08:05.090Z,25.50
2017-08-31T06:10:32.975Z,25.60
2017-08-31T06:13:00.517Z,25.29
2017-08-31T06:15:28.135Z,25.73
2017-08-31T06:17:55.714Z,26.18
2017-08-31T06:20:23.518Z,26.37
2017-08-31T06:22:51.128Z,26.21
2017-08-31T06:25:18.698Z,26.36
2017-08-31T06:27:46.265Z,26.49
2017-08-31T06:30:13.855Z,26.30
2017-08-31T06:32:41.396Z,26.69
2017-08-31T06:35:09.480Z,27.06
2017-08-31T06:37:37.146Z,27.30
2017-08-31T06:40:04.719Z,27.57
2017-08-31T06:42:33.731Z,27.27
2017-08-31T06:45:02.389Z,27.37
2017-08-31T06:47:29.972Z,27.20
2017-08-31T06:49:57.575Z,27.85
2017-08-31T06:52:25.154Z,27.48
2017-08-31T06:54:52.731Z,27.69
2017-08-31T06:57:21.088Z,28.44
2017-08-31T06:59:48.677Z,28.04
2017-08-31T07:02:16.276Z,27.89
2017-08-31T07:04:44.347Z,27.76
2017-08-31T07:07:12.001Z,27.35
2017-08-31T07:09:39.586Z,26.25
2017-08-31T07:12:07.152Z,27.20
2017-08-31T07:14:34.748Z,26.69
2017-08-31T07:17:02.332Z,26.60
2017-08-31T07:19:29.917Z,26.78
2017-08-31T07:21:57.568Z,27.46
2017-08-31T07:24:25.158Z,26.22
2017-08-31T07:26:52.747Z,25.75
2017-08-31T07:29:20.298Z,25.37
2017-08-31T07:31:48.731Z,27.20
2017-08-31T07:34:16.479Z,27.61
2017-08-31T07:36:44.108Z,28.03
2017-08-31T07:39:11.807Z,27.13
2017-08-31T07:41:39.467Z,28.22
2017-08-31T07:44:07.030Z,28.58
2017-08-31T07:46:34.615Z,27.21
2017-08-31T07:49:03.026Z,27.39
2017-08-31T07:51:30.610Z,27.26
2017-08-31T07:53:58.193Z,27.47
2017-08-31T07:56:25.822Z,28.20
2017-08-31T07:59:14.685Z,28.38
2017-08-31T08:01:42.353Z,28.82
2017-08-31T08:04:09.922Z,28.73
2017-08-31T08:06:41.060Z,28.28
2017-08-31T08:09:08.727Z,28.60
2017-08-31T08:11:46.377Z,28.86
2017-08-31T08:14:13.917Z,28.35
2017-08-31T08:16:42.311Z,28.69
2017-08-31T08:19:10.795Z,28.58
2017-08-31T08:21:38.657Z,28.84
2017-08-31T08:24:06.300Z,29.07
2017-08-31T08:26:34.118Z,29.25
2017-08-31T08:29:01.713Z,29.70
2017-08-31T08:31:29.280Z,28.78
2017-08-31T08:33:56.884Z,28.97
2017-08-31T08:36:24.479Z,29.87
2017-08-31T08:38:52.119Z,30.10
2017-08-31T08:41:19.929Z,30.38
2017-08-31T08:43:47.521Z,29.46
2017-08-31T08:46:15.151Z,30.03
2017-08-31T08:48:42.680Z,29.23
2017-08-31T08:51:10.508Z,28.96
2017-08-31T08:53:38.217Z,28.98
2017-08-31T08:56:05.765Z,29.17
2017-08-31T08:58:33.580Z,29.28
2017-08-31T09:01:01.174Z,28.54
2017-08-31T09:03:28.725Z,28.93
2017-08-31T09:05:56.281Z,28.88
2017-08-31T09:08:23.945Z,28.81
2017-08-31T09:10:51.530Z,29.04
2017-08-31T09:13:19.097Z,29.78
2017-08-31T09:15:46.879Z,30.33
2017-08-31T09:18:14.633Z,30.83
2017-08-31T09:20:42.178Z,30.94
2017-08-31T09:23:09.753Z,30.53
2017-08-31T09:25:37.296Z,30.22
2017-08-31T09:28:04.875Z,31.24
2017-08-31T09:30:32.491Z,32.06
2017-08-31T09:33:00.068Z,32.19
2017-08-31T09:35:27.731Z,32.53
2017-08-31T09:37:55.368Z,32.63
2017-08-31T09:40:23.367Z,32.34
2017-08-31T09:42:51.153Z,32.39
2017-08-31T09:45:18.740Z,31.69
2017-08-31T09:47:46.322Z,31.67
2017-08-31T09:50:13.881Z,32.06
2017-08-31T09:52:41.461Z,32.32
2017-08-31T09:55:09.007Z,32.78
2017-08-31T09:57:37.161Z,32.85
2017-08-31T10:00:06.409Z,32.75
2017-08-31T10:02:33.987Z,31.43
2017-08-31T10:05:01.519Z,31.35
2017-08-31T10:07:29.101Z,31.49
2017-08-31T10:09:56.670Z,30.90
2017-08-31T10:12:24.203Z,31.61
2017-08-31T10:14:52.562Z,31.11
2017-08-31T10:17:20.445Z,31.46
2017-08-31T10:19:48.194Z,30.28
2017-08-31T10:22:15.817Z,31.07
2017-08-31T10:24:43.634Z,31.62
2017-08-31T10:27:11.392Z,31.53
2017-08-31T10:29:39.037Z,30.50
2017-08-31T10:32:06.654Z,31.03
2017-08-31T10:34:34.224Z,31.28
2017-08-31T10:37:02.774Z,31.23
2017-08-31T10:39:30.399Z,31.25
2017-08-31T10:41:57.947Z,31.24
2017-08-31T10:44:25.705Z,31.61
2017-08-31T10:46:53.261Z,31.69
2017-08-31T10:49:20.927Z,31.10
2017-08-31T10:51:48.791Z,31.50
2017-08-31T10:54:16.444Z,31.54
2017-08-31T10:56:44.052Z,31.81
2017-08-31T10:59:11.683Z,31.70
2017-08-31T11:01:39.324Z,31.86
2017-08-31T11:04:07.197Z,32.18
2017-08-31T11:06:34.777Z,32.05
2017-08-31T11:09:02.393Z,31.75
2017-08-31T11:11:29.951Z,31.24
2017-08-31T11:13:57.537Z,31.40
2017-08-31T11:16:26.874Z,31.80
2017-08-31T11:18:54.445Z,31.74
2017-08-31T11:21:24.721Z,32.01
2017-08-31T11:23:52.296Z,32.10
2017-08-31T11:26:19.827Z,31.56
2017-08-31T11:28:47.413Z,31.43
2017-08-31T11:31:14.961Z,31.54
2017-08-31T11:33:42.494Z,31.76
2017-08-31T11:36:10.457Z,31.58
2017-08-31T11:38:37.927Z,31.55
2017-08-31T11:41:05.429Z,31.24
2017-08-31T11:43:33.194Z,31.50
2017-08-31T11:46:01.013Z,31.76
2017-08-31T11:48:28.746Z,31.45
2017-08-31T11:50:56.268Z,31.31
2017-08-31T11:53:23.849Z,31.70
2017-08-31T11:55:51.407Z,31.89
2017-08-31T11:58:19.160Z,31.72
2017-08-31T12:00:47.663Z,31.53
2017-08-31T12:03:15.435Z,31.87
2017-08-31T12:05:43.217Z,31.92
2017-08-31T12:08:10.829Z,31.88
2017-08-31T12:13:20.312Z,32.04
2017-08-31T12:15:48.096Z,31.94
2017-08-31T12:18:15.868Z,31.90
2017-08-31T12:20:43.441Z,31.86
2017-08-31T12:23:11.023Z,31.88
2017-08-31T12:25:38.608Z,31.70
2017-08-31T12:28:06.189Z,31.66
2017-08-31T12:30:34.508Z,31.83
2017-08-31T12:33:02.077Z,31.50
2017-08-31T12:35:29.667Z,31.58
2017-08-31T12:37:57.238Z,31.83
2017-08-31T12:40:25.016Z,31.72
2017-08-31T12:42:52.618Z,31.78
2017-08-31T12:45:20.204Z,31.65
2017-08-31T12:47:48.141Z,31.29
2017-08-31T12:50:15.727Z,31.51
2017-08-31T12:52:43.287Z,31.35
2017-08-31T12:55:10.895Z,31.37
2017-08-31T12:57:38.653Z,31.42
2017-08-31T13:00:07.681Z,31.52
2017-08-31T13:02:35.282Z,31.59
2017-08-31T13:05:02.873Z,31.24
2017-08-31T13:07:30.452Z,30.97
2017-08-31T13:09:59.027Z,30.97
2017-08-31T13:12:27.238Z,31.17
2017-08-31T13:14:55.551Z,31.15
2017-08-31T13:17:23.108Z,31.06
2017-08-31T13:19:50.635Z,31.23
2017-08-31T13:22:18.513Z,31.12
2017-08-31T13:24:46.251Z,31.23
2017-08-31T13:27:15.397Z,31.26
2017-08-31T13:29:45.231Z,31.26
2017-08-31T13:32:12.860Z,31.30
2017-08-31T13:34:40.733Z,31.32
2017-08-31T13:37:09.243Z,31.33
2017-08-31T13:39:36.892Z,31.17
2017-08-31T13:42:04.414Z,31.10
2017-08-31T13:44:31.961Z,31.05
2017-08-31T13:46:59.510Z,31.04
2017-08-31T13:49:28.085Z,30.78
2017-08-31T13:51:57.375Z,30.79
2017-08-31T13:54:25.012Z,30.65
2017-08-31T13:56:55.624Z,30.49
2017-08-31T13:59:23.255Z,30.56
2017-08-31T14:01:52.286Z,30.36
2017-08-31T14:04:20.083Z,30.34
2017-08-31T14:06:47.764Z,30.23
2017-08-31T14:09:15.436Z,30.32
2017-08-31T14:11:44.063Z,30.28
2017-08-31T14:14:12.821Z,30.23
2017-08-31T14:16:40.622Z,30.28
2017-08-31T14:19:09.176Z,30.25
2017-08-31T14:21:36.767Z,30.24
2017-08-31T14:24:04.351Z,30.13
2017-08-31T14:26:32.943Z,30.09
2017-08-31T14:29:00.712Z,30.06
2017-08-31T14:31:28.301Z,30.02
2017-08-31T14:33:56.674Z,29.95
2017-08-31T14:36:24.444Z,29.98
2017-08-31T14:38:52.675Z,29.90
2017-08-31T14:41:20.209Z,29.88
2017-08-31T14:43:48.686Z,29.90
2017-08-31T14:46:16.256Z,29.85
2017-08-31T14:48:43.900Z,29.80
2017-08-31T14:51:11.422Z,29.83
2017-08-31T14:53:39.153Z,29.76
2017-08-31T14:56:06.992Z,29.69
2017-08-31T14:58:34.596Z,29.53
2017-08-31T15:01:02.341Z,29.51
2017-08-31T15:03:29.934Z,29.48
2017-08-31T15:05:58.560Z,29.51
2017-08-31T15:08:26.204Z,29.60
2017-08-31T15:10:53.769Z,29.59
2017-08-31T15:13:21.370Z,29.60
2017-08-31T15:15:48.953Z,29.53
2017-08-31T15:18:16.594Z,29.41
2017-08-31T15:20:44.366Z,29.43
2017-08-31T15:23:12.674Z,29.40
2017-08-31T15:25:40.814Z,29.41
2017-08-31T15:28:08.559Z,29.39
2017-08-31T15:30:36.625Z,29.43
2017-08-31T15:33:04.232Z,29.43
2017-08-31T15:35:31.828Z,29.38
2017-08-31T15:37:59.463Z,29.37
2017-08-31T15:40:27.095Z,29.39
2017-08-31T15:42:54.628Z,29.40
2017-08-31T15:45:22.529Z,29.34
2017-08-31T15:47:50.077Z,29.29
2017-08-31T15:50:18.446Z,29.28
2017-08-31T15:52:46.022Z,29.30
2017-08-31T15:55:13.595Z,29.18
2017-08-31T15:57:41.193Z,29.11
2017-08-31T16:00:10.223Z,29.08
2017-08-31T16:02:37.752Z,29.09
2017-08-31T16:05:05.528Z,29.00
2017-08-31T16:07:33.980Z,28.96
2017-08-31T16:10:01.528Z,28.96
2017-08-31T16:12:29.808Z,28.95
2017-08-31T16:14:57.432Z,28.87
2017-08-31T16:17:25.197Z,28.90
2017-08-31T16:19:52.856Z,28.83
2017-08-31T16:22:20.449Z,28.78
2017-08-31T16:24:48.211Z,28.64
2017-08-31T16:27:15.967Z,28.41
2017-08-31T16:29:43.764Z,28.24
2017-08-31T16:32:11.348Z,28.03
2017-08-31T16:34:40.616Z,27.97
2017-08-31T16:37:08.181Z,27.91
2017-08-31T16:39:35.945Z,27.79
2017-08-31T16:42:03.483Z,27.69
2017-08-31T16:44:32.527Z,27.56
2017-08-31T16:47:00.317Z,27.47
2017-08-31T16:49:27.860Z,27.30
2017-08-31T16:51:55.744Z,27.24
2017-08-31T16:54:23.978Z,27.20
2017-08-31T16:56:52.559Z,27.04
2017-08-31T16:59:20.125Z,27.07
2017-08-31T17:01:48.661Z,26.90
2017-08-31T17:04:16.222Z,26.74
2017-08-31T17:06:43.741Z,26.58
2017-08-31T17:09:11.450Z,26.49
2017-08-31T17:11:39.149Z,26.32
2017-08-31T17:14:06.693Z,26.17
2017-08-31T17:16:34.650Z,26.17
2017-08-31T17:19:02.458Z,25.97
2017-08-31T17:21:30.219Z,26.01
2017-08-31T17:23:57.796Z,25.86
2017-08-31T17:26:25.389Z,25.77
2017-08-31T17:28:53.760Z,25.71
2017-08-31T17:31:21.365Z,25.67
2017-08-31T17:33:49.231Z,25.76
2017-08-31T17:36:16.773Z,25.84
2017-08-31T17:38:44.382Z,25.67
2017-08-31T17:41:11.913Z,25.69
2017-08-31T17:43:39.442Z,25.80
2017-08-31T17:46:07.048Z,25.91
2017-08-31T17:48:34.818Z,25.89
2017-08-31T17:51:02.364Z,25.81
2017-08-31T17:53:34.319Z,25.81
2017-08-31T17:56:02.072Z,25.71
2017-08-31T17:58:32.376Z,25.66
2017-08-31T18:01:00.060Z,25.69
2017-08-31T18:03:27.918Z,25.54
2017-08-31T18:05:55.659Z,25.32
2017-08-31T18:11:21.191Z,24.78
2017-08-31T18:13:59.247Z,24.47
2017-08-31T18:16:27.537Z,24.19
2017-08-31T18:18:55.085Z,24.10
2017-08-31T18:21:22.606Z,23.87
2017-08-31T18:23:50.148Z,23.63
2017-08-31T18:26:18.443Z,23.43
2017-08-31T18:28:47.401Z,23.37
2017-08-31T18:31:15.976Z,23.31
2017-08-31T18:33:46.872Z,23.36
2017-08-31T18:36:14.381Z,23.36
2017-08-31T18:38:41.994Z,23.18
2017-08-31T18:41:10.244Z,23.21
2017-08-31T18:43:38.263Z,23.17
2017-08-31T18:46:05.853Z,23.08
2017-08-31T18:48:34.908Z,22.95
2017-08-31T18:51:02.509Z,22.86
2017-08-31T18:53:30.081Z,22.85
2017-08-31T18:55:57.881Z,22.70
2017-08-31T18:58:25.433Z,22.87
2017-08-31T19:00:53.100Z,22.69
2017-08-31T19:03:20.622Z,22.53
2017-08-31T19:05:48.141Z,22.46
2017-08-31T19:08:16.680Z,22.44
2017-08-31T19:10:44.199Z,22.45
2017-08-31T19:13:11.786Z,22.41
2017-08-31T19:15:39.347Z,22.35
2017-08-31T19:18:06.865Z,22.21
2017-08-31T19:20:34.758Z,22.10
2017-08-31T19:23:02.349Z,22.20
2017-08-31T19:25:29.874Z,22.15
2017-08-31T19:27:57.409Z,22.06
2017-08-31T19:30:25.877Z,21.95
2017-08-31T19:32:53.404Z,22.00
2017-08-31T19:35:20.950Z,21.85
2017-08-31T19:37:48.520Z,21.74
2017-08-31T19:40:16.137Z,21.78
2017-08-31T19:42:43.874Z,21.83
2017-08-31T19:45:11.465Z,21.79
2017-08-31T19:47:39.107Z,21.85
2017-08-31T19:50:07.390Z,21.84
2017-08-31T19:52:34.978Z,21.75
2017-08-31T19:55:02.521Z,21.77
2017-08-31T19:57:30.094Z,21.81
2017-08-31T19:59:57.671Z,21.66
2017-08-31T20:02:25.281Z,21.66
2017-08-31T20:04:52.847Z,21.59
2017-08-31T20:07:20.410Z,21.50
2017-08-31T20:09:48.038Z,21.56
2017-08-31T20:12:15.563Z,21.44
2017-08-31T20:14:43.099Z,21.52
2017-08-31T20:17:10.691Z,21.47
2017-08-31T20:19:38.316Z,21.49
2017-08-31T20:22:05.861Z,21.48
2017-08-31T20:24:33.442Z,21.46
2017-08-31T20:27:00.995Z,21.32
2017-08-31T20:29:28.815Z,21.40
2017-08-31T20:31:56.402Z,21.27
2017-08-31T20:34:23.920Z,21.33
2017-08-31T20:36:51.445Z,21.36
2017-08-31T20:41:53.119Z,21.16
2017-08-31T20:44:20.672Z,20.99
2017-08-31T20:46:49.709Z,21.16
2017-08-31T20:49:21.851Z,21.06
2017-08-31T20:51:49.362Z,21.00
2017-08-31T20:57:54.453Z,21.16
2017-08-31T21:00:49.475Z,21.32
2017-08-31T21:03:17.213Z,21.23
2017-08-31T21:05:47.212Z,21.34
2017-08-31T21:08:14.727Z,21.14
2017-08-31T21:10:42.237Z,21.14
2017-08-31T21:13:09.781Z,21.06
2017-08-31T21:15:37.282Z,20.99
2017-08-31T21:18:04.817Z,20.92
2017-08-31T21:20:32.389Z,20.85
2017-08-31T21:22:59.904Z,20.85
2017-08-31T21:25:27.448Z,20.80
2017-08-31T21:27:55.002Z,20.77
2017-08-31T21:30:22.585Z,20.79
2017-08-31T21:32:50.110Z,20.67
2017-08-31T21:35:18.481Z,20.72
2017-08-31T21:37:46.071Z,20.73
2017-08-31T21:40:14.888Z,20.74
2017-08-31T21:42:42.429Z,20.70
2017-08-31T21:45:09.976Z,20.71
2017-08-31T21:47:37.483Z,20.69
2017-08-31T21:50:05.439Z,20.73
2017-08-31T21:52:33.102Z,20.72
2017-08-31T21:55:00.621Z,20.55
2017-08-31T21:57:28.130Z,20.60
2017-08-31T21:59:55.701Z,20.34
2017-08-31T22:02:23.248Z,20.52
2017-08-31T22:04:50.771Z,20.36
2017-08-31T22:07:18.675Z,20.32
2017-08-31T22:09:46.219Z,20.40
2017-08-31T22:12:13.747Z,20.44
2017-08-31T22:14:41.275Z,20.38
2017-08-31T22:17:08.856Z,20.35
2017-08-31T22:19:36.410Z,20.26
2017-08-31T22:22:03.979Z,20.24
2017-08-31T22:24:31.537Z,20.25
2017-08-31T22:26:59.117Z,20.40
2017-08-31T22:29:26.891Z,20.39
2017-08-31T22:31:54.785Z,20.26
2017-08-31T22:34:22.616Z,20.34
2017-08-31T22:36:50.132Z,20.39
2017-08-31T22:39:17.685Z,20.25
2017-08-31T22:41:45.214Z,20.18
2017-08-31T22:44:12.759Z,20.06
2017-08-31T22:46:40.335Z,20.28
2017-08-31T22:49:07.864Z,20.33
2017-08-31T22:51:35.387Z,20.35
2017-08-31T22:54:02.992Z,20.28
2017-08-31T22:56:42.368Z,20.29
2017-08-31T22:59:09.963Z,20.34
2017-08-31T23:01:37.538Z,20.22
2017-08-31T23:04:05.911Z,20.28
2017-08-31T23:06:33.616Z,20.30
2017-08-31T23:09:01.224Z,20.28
2017-08-31T23:11:28.745Z,20.11
2017-08-31T23:13:56.519Z,20.13
2017-08-31T23:16:24.441Z,20.02
2017-08-31T23:18:51.969Z,20.02
2017-08-31T23:21:19.496Z,19.89
2017-08-31T23:23:47.367Z,19.95
2017-08-31T23:26:15.143Z,19.97
2017-08-31T23:28:42.684Z,20.02
2017-08-31T23:31:10.248Z,19.93
2017-08-31T23:33:37.775Z,19.98
2017-08-31T23:36:05.545Z,19.91
2017-08-31T23:38:33.100Z,20.07
2017-08-31T23:41:00.614Z,19.96
2017-08-31T23:43:28.135Z,19.98
2017-08-31T23:45:56.611Z,20.15
2017-08-31T23:48:24.131Z,20.17
2017-08-31T23:50:51.888Z,20.27
2017-08-31T23:53:19.460Z,20.27
2017-08-31T23:55:47.004Z,20.13
2017-08-31T23:58:14.598Z,20.10
